sensor_id;sensor_type;location;lat;lon;timestamp;P1;durP1;ratioP1;P2;durP2;ratioP2
73266;SDS011;61495;53.400;7.608;2022-12-29T00:02:09;4.65;;;2.65;;
73266;SDS011;61495;53.400;7.608;2022-12-29T00:04:35;4.97;;;2.83;;
73266;SDS011;61495;53.400;7.608;2022-12-29T00:07:00;4.35;;;2.53;;
73266;SDS011;61495;53.400;7.608;2022-12-29T00:09:29;4.57;;;2.75;;
73266;SDS011;61495;53.400;7.608;2022-12-29T00:11:55;5.30;;;2.67;;
73266;SDS011;61495;53.400;7.608;2022-12-29T00:14:20;4.53;;;2.70;;
73266;SDS011;61495;53.400;7.608;2022-12-29T00:17:04;5.95;;;3.30;;
73266;SDS011;61495;53.400;7.608;2022-12-29T00:19:29;4.73;;;2.47;;
73266;SDS011;61495;53.400;7.608;2022-12-29T00:22:13;6.63;;;2.78;;
73266;SDS011;61495;53.400;7.608;2022-12-29T00:24:58;5.05;;;2.78;;
73266;SDS011;61495;53.400;7.608;2022-12-29T00:27:43;4.82;;;3.05;;
73266;SDS011;61495;53.400;7.608;2022-12-29T00:30:27;5.35;;;2.70;;
73266;SDS011;61495;53.400;7.608;2022-12-29T00:33:12;5.00;;;2.70;;
73266;SDS011;61495;53.400;7.608;2022-12-29T00:36:00;5.45;;;2.38;;
73266;SDS011;61495;53.400;7.608;2022-12-29T00:38:30;3.58;;;2.28;;
73266;SDS011;61495;53.400;7.608;2022-12-29T00:41:16;4.78;;;2.67;;
73266;SDS011;61495;53.400;7.608;2022-12-29T00:44:00;4.78;;;2.83;;
73266;SDS011;61495;53.400;7.608;2022-12-29T00:46:35;4.57;;;2.53;;
73266;SDS011;61495;53.400;7.608;2022-12-29T00:49:05;4.63;;;2.60;;
73266;SDS011;61495;53.400;7.608;2022-12-29T00:51:51;4.38;;;2.67;;
73266;SDS011;61495;53.400;7.608;2022-12-29T00:54:16;5.13;;;2.75;;
73266;SDS011;61495;53.400;7.608;2022-12-29T00:56:42;5.28;;;2.60;;
73266;SDS011;61495;53.400;7.608;2022-12-29T00:59:08;4.60;;;2.63;;
73266;SDS011;61495;53.400;7.608;2022-12-29T01:01:35;4.68;;;2.75;;
73266;SDS011;61495;53.400;7.608;2022-12-29T01:04:01;5.32;;;2.95;;
73266;SDS011;61495;53.400;7.608;2022-12-29T01:06:27;5.03;;;2.70;;
73266;SDS011;61495;53.400;7.608;2022-12-29T01:08:52;4.82;;;2.75;;
73266;SDS011;61495;53.400;7.608;2022-12-29T01:11:37;6.00;;;3.47;;
73266;SDS011;61495;53.400;7.608;2022-12-29T01:14:02;4.97;;;3.22;;
73266;SDS011;61495;53.400;7.608;2022-12-29T01:16:28;4.93;;;2.65;;
73266;SDS011;61495;53.400;7.608;2022-12-29T01:18:54;5.15;;;3.10;;
73266;SDS011;61495;53.400;7.608;2022-12-29T01:21:19;4.63;;;2.85;;
73266;SDS011;61495;53.400;7.608;2022-12-29T01:23:44;4.90;;;3.05;;
73266;SDS011;61495;53.400;7.608;2022-12-29T01:26:13;5.13;;;2.77;;
73266;SDS011;61495;53.400;7.608;2022-12-29T01:28:40;4.97;;;3.03;;
73266;SDS011;61495;53.400;7.608;2022-12-29T01:31:10;4.63;;;2.67;;
73266;SDS011;61495;53.400;7.608;2022-12-29T01:33:37;4.75;;;2.70;;
73266;SDS011;61495;53.400;7.608;2022-12-29T01:36:03;4.35;;;2.78;;
73266;SDS011;61495;53.400;7.608;2022-12-29T01:38:30;5.55;;;2.40;;
73266;SDS011;61495;53.400;7.608;2022-12-29T01:40:56;6.00;;;2.90;;
73266;SDS011;61495;53.400;7.608;2022-12-29T01:43:37;5.28;;;2.60;;
73266;SDS011;61495;53.400;7.608;2022-12-29T01:46:04;5.05;;;3.45;;
73266;SDS011;61495;53.400;7.608;2022-12-29T01:48:41;4.55;;;2.40;;
73266;SDS011;61495;53.400;7.608;2022-12-29T01:51:07;5.07;;;2.88;;
73266;SDS011;61495;53.400;7.608;2022-12-29T01:53:33;4.68;;;2.67;;
73266;SDS011;61495;53.400;7.608;2022-12-29T01:56:01;4.25;;;2.30;;
73266;SDS011;61495;53.400;7.608;2022-12-29T01:58:32;4.47;;;3.05;;
73266;SDS011;61495;53.400;7.608;2022-12-29T02:01:02;5.78;;;3.47;;
73266;SDS011;61495;53.400;7.608;2022-12-29T02:03:29;5.40;;;3.30;;
73266;SDS011;61495;53.400;7.608;2022-12-29T02:08:49;4.68;;;3.00;;
73266;SDS011;61495;53.400;7.608;2022-12-29T02:11:18;5.07;;;2.45;;
73266;SDS011;61495;53.400;7.608;2022-12-29T02:13:44;5.05;;;2.53;;
73266;SDS011;61495;53.400;7.608;2022-12-29T02:16:15;4.65;;;2.20;;
73266;SDS011;61495;53.400;7.608;2022-12-29T02:18:53;3.45;;;2.05;;
73266;SDS011;61495;53.400;7.608;2022-12-29T02:21:47;4.43;;;2.63;;
73266;SDS011;61495;53.400;7.608;2022-12-29T02:27:36;4.10;;;2.13;;
73266;SDS011;61495;53.400;7.608;2022-12-29T02:30:15;5.50;;;3.03;;
73266;SDS011;61495;53.400;7.608;2022-12-29T02:38:56;5.10;;;2.75;;
73266;SDS011;61495;53.400;7.608;2022-12-29T02:41:33;4.47;;;2.50;;
73266;SDS011;61495;53.400;7.608;2022-12-29T02:44:12;4.78;;;2.25;;
73266;SDS011;61495;53.400;7.608;2022-12-29T02:46:47;6.15;;;2.47;;
73266;SDS011;61495;53.400;7.608;2022-12-29T02:49:27;4.57;;;2.70;;
73266;SDS011;61495;53.400;7.608;2022-12-29T02:52:01;4.47;;;2.08;;
73266;SDS011;61495;53.400;7.608;2022-12-29T02:54:31;4.43;;;2.50;;
73266;SDS011;61495;53.400;7.608;2022-12-29T02:57:14;4.90;;;2.40;;
73266;SDS011;61495;53.400;7.608;2022-12-29T02:59:46;4.55;;;1.88;;
73266;SDS011;61495;53.400;7.608;2022-12-29T03:08:34;3.88;;;2.30;;
73266;SDS011;61495;53.400;7.608;2022-12-29T03:11:06;3.42;;;1.80;;
73266;SDS011;61495;53.400;7.608;2022-12-29T03:13:55;3.80;;;2.15;;
73266;SDS011;61495;53.400;7.608;2022-12-29T03:16:46;3.65;;;1.92;;
73266;SDS011;61495;53.400;7.608;2022-12-29T03:19:30;4.07;;;2.08;;
73266;SDS011;61495;53.400;7.608;2022-12-29T03:22:10;6.10;;;1.90;;
73266;SDS011;61495;53.400;7.608;2022-12-29T03:24:54;2.80;;;1.45;;
73266;SDS011;61495;53.400;7.608;2022-12-29T03:27:25;4.20;;;1.58;;
73266;SDS011;61495;53.400;7.608;2022-12-29T03:29:59;3.58;;;1.75;;
73266;SDS011;61495;53.400;7.608;2022-12-29T03:32:36;6.57;;;1.85;;
73266;SDS011;61495;53.400;7.608;2022-12-29T03:35:07;3.53;;;1.85;;
73266;SDS011;61495;53.400;7.608;2022-12-29T03:37:37;3.58;;;1.75;;
73266;SDS011;61495;53.400;7.608;2022-12-29T03:40:05;3.65;;;1.70;;
73266;SDS011;61495;53.400;7.608;2022-12-29T03:42:32;2.95;;;1.40;;
73266;SDS011;61495;53.400;7.608;2022-12-29T03:45:01;4.43;;;1.83;;
73266;SDS011;61495;53.400;7.608;2022-12-29T03:47:26;2.85;;;1.50;;
73266;SDS011;61495;53.400;7.608;2022-12-29T03:49:52;2.70;;;1.30;;
73266;SDS011;61495;53.400;7.608;2022-12-29T03:52:17;4.00;;;1.70;;
73266;SDS011;61495;53.400;7.608;2022-12-29T03:54:43;3.58;;;1.30;;
73266;SDS011;61495;53.400;7.608;2022-12-29T03:57:11;3.72;;;1.38;;
73266;SDS011;61495;53.400;7.608;2022-12-29T03:59:37;3.45;;;1.70;;
73266;SDS011;61495;53.400;7.608;2022-12-29T04:02:02;3.65;;;1.20;;
73266;SDS011;61495;53.400;7.608;2022-12-29T04:04:28;3.45;;;1.60;;
73266;SDS011;61495;53.400;7.608;2022-12-29T04:06:53;2.90;;;1.30;;
73266;SDS011;61495;53.400;7.608;2022-12-29T04:09:19;2.63;;;1.30;;
73266;SDS011;61495;53.400;7.608;2022-12-29T04:11:44;3.40;;;1.40;;
73266;SDS011;61495;53.400;7.608;2022-12-29T04:14:09;3.53;;;1.40;;
73266;SDS011;61495;53.400;7.608;2022-12-29T04:16:35;2.83;;;0.93;;
73266;SDS011;61495;53.400;7.608;2022-12-29T04:19:01;3.08;;;1.30;;
73266;SDS011;61495;53.400;7.608;2022-12-29T04:21:27;2.65;;;1.30;;
73266;SDS011;61495;53.400;7.608;2022-12-29T04:23:52;2.72;;;1.17;;
73266;SDS011;61495;53.400;7.608;2022-12-29T04:26:18;3.30;;;1.30;;
73266;SDS011;61495;53.400;7.608;2022-12-29T04:28:43;2.40;;;1.00;;
73266;SDS011;61495;53.400;7.608;2022-12-29T04:31:09;2.27;;;1.00;;
73266;SDS011;61495;53.400;7.608;2022-12-29T04:33:34;2.55;;;1.45;;
73266;SDS011;61495;53.400;7.608;2022-12-29T04:36:00;2.58;;;1.15;;
73266;SDS011;61495;53.400;7.608;2022-12-29T04:38:25;3.28;;;1.48;;
73266;SDS011;61495;53.400;7.608;2022-12-29T04:40:50;2.90;;;1.10;;
73266;SDS011;61495;53.400;7.608;2022-12-29T04:43:16;3.13;;;1.58;;
73266;SDS011;61495;53.400;7.608;2022-12-29T04:45:45;3.38;;;1.80;;
73266;SDS011;61495;53.400;7.608;2022-12-29T04:48:11;2.97;;;1.92;;
73266;SDS011;61495;53.400;7.608;2022-12-29T04:50:37;3.20;;;1.20;;
73266;SDS011;61495;53.400;7.608;2022-12-29T04:53:03;3.33;;;1.38;;
73266;SDS011;61495;53.400;7.608;2022-12-29T04:55:29;3.67;;;1.10;;
73266;SDS011;61495;53.400;7.608;2022-12-29T04:57:54;2.90;;;1.05;;
73266;SDS011;61495;53.400;7.608;2022-12-29T05:00:20;2.92;;;1.55;;
73266;SDS011;61495;53.400;7.608;2022-12-29T05:02:45;2.70;;;1.17;;
73266;SDS011;61495;53.400;7.608;2022-12-29T05:05:11;2.67;;;1.02;;
73266;SDS011;61495;53.400;7.608;2022-12-29T05:07:36;5.30;;;1.35;;
73266;SDS011;61495;53.400;7.608;2022-12-29T05:10:02;4.55;;;1.00;;
73266;SDS011;61495;53.400;7.608;2022-12-29T05:12:32;2.83;;;0.93;;
73266;SDS011;61495;53.400;7.608;2022-12-29T05:14:58;2.75;;;0.80;;
73266;SDS011;61495;53.400;7.608;2022-12-29T05:17:23;3.70;;;1.10;;
73266;SDS011;61495;53.400;7.608;2022-12-29T05:19:49;3.50;;;0.90;;
73266;SDS011;61495;53.400;7.608;2022-12-29T05:22:14;3.88;;;0.90;;
73266;SDS011;61495;53.400;7.608;2022-12-29T05:24:40;2.88;;;0.73;;
73266;SDS011;61495;53.400;7.608;2022-12-29T05:27:05;3.00;;;0.70;;
73266;SDS011;61495;53.400;7.608;2022-12-29T05:29:30;1.45;;;0.80;;
73266;SDS011;61495;53.400;7.608;2022-12-29T05:31:56;2.55;;;0.60;;
73266;SDS011;61495;53.400;7.608;2022-12-29T05:34:21;2.22;;;1.00;;
73266;SDS011;61495;53.400;7.608;2022-12-29T05:36:46;1.88;;;0.60;;
73266;SDS011;61495;53.400;7.608;2022-12-29T05:39:12;3.58;;;1.15;;
73266;SDS011;61495;53.400;7.608;2022-12-29T05:41:37;1.87;;;0.70;;
73266;SDS011;61495;53.400;7.608;2022-12-29T05:44:02;2.77;;;0.90;;
73266;SDS011;61495;53.400;7.608;2022-12-29T05:46:28;1.98;;;0.57;;
73266;SDS011;61495;53.400;7.608;2022-12-29T05:48:53;1.58;;;0.52;;
73266;SDS011;61495;53.400;7.608;2022-12-29T05:51:18;1.57;;;0.70;;
73266;SDS011;61495;53.400;7.608;2022-12-29T05:53:44;2.38;;;0.63;;
73266;SDS011;61495;53.400;7.608;2022-12-29T05:56:09;2.67;;;0.53;;
73266;SDS011;61495;53.400;7.608;2022-12-29T05:58:34;1.80;;;0.65;;
73266;SDS011;61495;53.400;7.608;2022-12-29T06:01:00;4.50;;;0.93;;
73266;SDS011;61495;53.400;7.608;2022-12-29T06:03:25;2.17;;;0.80;;
73266;SDS011;61495;53.400;7.608;2022-12-29T06:05:51;4.70;;;1.25;;
73266;SDS011;61495;53.400;7.608;2022-12-29T06:08:16;4.38;;;0.63;;
73266;SDS011;61495;53.400;7.608;2022-12-29T06:10:41;2.35;;;0.80;;
73266;SDS011;61495;53.400;7.608;2022-12-29T06:13:07;2.37;;;1.20;;
73266;SDS011;61495;53.400;7.608;2022-12-29T06:15:32;3.33;;;0.80;;
73266;SDS011;61495;53.400;7.608;2022-12-29T06:17:58;4.93;;;0.90;;
73266;SDS011;61495;53.400;7.608;2022-12-29T06:20:23;4.27;;;1.03;;
73266;SDS011;61495;53.400;7.608;2022-12-29T06:22:49;2.63;;;0.70;;
73266;SDS011;61495;53.400;7.608;2022-12-29T06:25:14;2.65;;;0.85;;
73266;SDS011;61495;53.400;7.608;2022-12-29T06:27:40;4.43;;;1.00;;
73266;SDS011;61495;53.400;7.608;2022-12-29T06:30:06;5.70;;;1.10;;
73266;SDS011;61495;53.400;7.608;2022-12-29T06:32:33;4.78;;;0.98;;
73266;SDS011;61495;53.400;7.608;2022-12-29T06:34:59;4.90;;;1.10;;
73266;SDS011;61495;53.400;7.608;2022-12-29T06:37:24;6.53;;;1.52;;
73266;SDS011;61495;53.400;7.608;2022-12-29T06:39:50;3.20;;;0.88;;
73266;SDS011;61495;53.400;7.608;2022-12-29T06:42:15;3.40;;;0.93;;
73266;SDS011;61495;53.400;7.608;2022-12-29T06:44:40;6.50;;;1.55;;
73266;SDS011;61495;53.400;7.608;2022-12-29T06:47:06;4.47;;;1.00;;
73266;SDS011;61495;53.400;7.608;2022-12-29T06:49:31;6.67;;;1.10;;
73266;SDS011;61495;53.400;7.608;2022-12-29T06:51:56;7.10;;;1.60;;
73266;SDS011;61495;53.400;7.608;2022-12-29T06:54:23;2.05;;;1.02;;
73266;SDS011;61495;53.400;7.608;2022-12-29T06:56:48;3.50;;;1.02;;
73266;SDS011;61495;53.400;7.608;2022-12-29T06:59:13;3.93;;;1.03;;
73266;SDS011;61495;53.400;7.608;2022-12-29T07:01:39;3.53;;;1.00;;
73266;SDS011;61495;53.400;7.608;2022-12-29T07:04:04;3.97;;;1.52;;
73266;SDS011;61495;53.400;7.608;2022-12-29T07:06:30;3.50;;;0.88;;
73266;SDS011;61495;53.400;7.608;2022-12-29T07:08:55;3.88;;;1.02;;
73266;SDS011;61495;53.400;7.608;2022-12-29T07:11:22;2.88;;;1.08;;
73266;SDS011;61495;53.400;7.608;2022-12-29T07:13:48;5.78;;;1.50;;
73266;SDS011;61495;53.400;7.608;2022-12-29T07:16:13;2.83;;;1.00;;
73266;SDS011;61495;53.400;7.608;2022-12-29T07:18:39;4.28;;;1.35;;
73266;SDS011;61495;53.400;7.608;2022-12-29T07:21:04;5.35;;;1.60;;
73266;SDS011;61495;53.400;7.608;2022-12-29T07:23:30;4.53;;;1.00;;
73266;SDS011;61495;53.400;7.608;2022-12-29T07:26:05;4.88;;;1.10;;
73266;SDS011;61495;53.400;7.608;2022-12-29T07:28:32;5.05;;;1.60;;
73266;SDS011;61495;53.400;7.608;2022-12-29T07:30:59;5.85;;;1.60;;
73266;SDS011;61495;53.400;7.608;2022-12-29T07:33:25;3.60;;;1.00;;
73266;SDS011;61495;53.400;7.608;2022-12-29T07:35:53;5.88;;;1.23;;
73266;SDS011;61495;53.400;7.608;2022-12-29T07:38:18;5.07;;;1.75;;
73266;SDS011;61495;53.400;7.608;2022-12-29T07:40:43;6.90;;;1.83;;
73266;SDS011;61495;53.400;7.608;2022-12-29T07:43:09;5.13;;;1.17;;
73266;SDS011;61495;53.400;7.608;2022-12-29T07:45:34;7.40;;;1.27;;
73266;SDS011;61495;53.400;7.608;2022-12-29T07:48:00;6.10;;;1.63;;
73266;SDS011;61495;53.400;7.608;2022-12-29T07:50:27;6.82;;;1.73;;
73266;SDS011;61495;53.400;7.608;2022-12-29T07:52:53;6.25;;;1.50;;
73266;SDS011;61495;53.400;7.608;2022-12-29T07:55:18;6.53;;;1.33;;
73266;SDS011;61495;53.400;7.608;2022-12-29T07:57:44;3.85;;;1.00;;
73266;SDS011;61495;53.400;7.608;2022-12-29T08:00:09;7.10;;;1.35;;
73266;SDS011;61495;53.400;7.608;2022-12-29T08:02:35;8.70;;;1.20;;
73266;SDS011;61495;53.400;7.608;2022-12-29T08:05:01;8.18;;;1.23;;
73266;SDS011;61495;53.400;7.608;2022-12-29T08:07:26;7.35;;;1.80;;
73266;SDS011;61495;53.400;7.608;2022-12-29T08:09:52;5.65;;;1.27;;
73266;SDS011;61495;53.400;7.608;2022-12-29T08:12:17;4.57;;;1.20;;
73266;SDS011;61495;53.400;7.608;2022-12-29T08:14:43;8.65;;;1.20;;
73266;SDS011;61495;53.400;7.608;2022-12-29T08:17:09;6.82;;;1.35;;
73266;SDS011;61495;53.400;7.608;2022-12-29T08:19:35;5.82;;;1.60;;
73266;SDS011;61495;53.400;7.608;2022-12-29T08:22:01;6.20;;;1.13;;
73266;SDS011;61495;53.400;7.608;2022-12-29T08:24:26;6.38;;;1.85;;
73266;SDS011;61495;53.400;7.608;2022-12-29T08:26:52;7.95;;;2.00;;
73266;SDS011;61495;53.400;7.608;2022-12-29T08:29:17;6.28;;;1.50;;
73266;SDS011;61495;53.400;7.608;2022-12-29T08:31:42;5.72;;;1.92;;
73266;SDS011;61495;53.400;7.608;2022-12-29T08:34:08;4.72;;;1.58;;
73266;SDS011;61495;53.400;7.608;2022-12-29T08:36:33;6.55;;;1.67;;
73266;SDS011;61495;53.400;7.608;2022-12-29T08:38:59;5.78;;;1.40;;
73266;SDS011;61495;53.400;7.608;2022-12-29T08:41:24;4.35;;;1.50;;
73266;SDS011;61495;53.400;7.608;2022-12-29T08:43:50;6.15;;;1.40;;
73266;SDS011;61495;53.400;7.608;2022-12-29T08:46:15;7.82;;;1.30;;
73266;SDS011;61495;53.400;7.608;2022-12-29T08:48:41;5.35;;;1.55;;
73266;SDS011;61495;53.400;7.608;2022-12-29T08:51:07;5.22;;;1.27;;
73266;SDS011;61495;53.400;7.608;2022-12-29T08:53:33;8.15;;;1.10;;
73266;SDS011;61495;53.400;7.608;2022-12-29T08:55:59;9.63;;;2.28;;
73266;SDS011;61495;53.400;7.608;2022-12-29T08:58:25;7.60;;;1.42;;
73266;SDS011;61495;53.400;7.608;2022-12-29T09:00:52;6.18;;;1.38;;
73266;SDS011;61495;53.400;7.608;2022-12-29T09:03:21;8.52;;;1.60;;
73266;SDS011;61495;53.400;7.608;2022-12-29T09:05:50;4.15;;;1.70;;
73266;SDS011;61495;53.400;7.608;2022-12-29T09:08:17;9.57;;;1.77;;
73266;SDS011;61495;53.400;7.608;2022-12-29T09:10:43;6.82;;;1.48;;
73266;SDS011;61495;53.400;7.608;2022-12-29T09:13:09;6.03;;;1.60;;
73266;SDS011;61495;53.400;7.608;2022-12-29T09:15:35;8.07;;;1.73;;
73266;SDS011;61495;53.400;7.608;2022-12-29T09:18:00;9.13;;;1.42;;
73266;SDS011;61495;53.400;7.608;2022-12-29T09:20:25;4.85;;;1.27;;
73266;SDS011;61495;53.400;7.608;2022-12-29T09:22:51;3.15;;;1.23;;
73266;SDS011;61495;53.400;7.608;2022-12-29T09:25:16;6.97;;;1.40;;
73266;SDS011;61495;53.400;7.608;2022-12-29T09:27:42;9.57;;;1.60;;
73266;SDS011;61495;53.400;7.608;2022-12-29T09:30:09;6.90;;;1.13;;
73266;SDS011;61495;53.400;7.608;2022-12-29T09:32:37;6.97;;;1.50;;
73266;SDS011;61495;53.400;7.608;2022-12-29T09:35:02;6.45;;;2.20;;
73266;SDS011;61495;53.400;7.608;2022-12-29T09:37:28;9.82;;;2.40;;
73266;SDS011;61495;53.400;7.608;2022-12-29T09:39:54;7.72;;;1.35;;
73266;SDS011;61495;53.400;7.608;2022-12-29T09:42:22;8.60;;;1.70;;
73266;SDS011;61495;53.400;7.608;2022-12-29T09:47:57;12.02;;;1.77;;
73266;SDS011;61495;53.400;7.608;2022-12-29T09:50:30;8.40;;;1.40;;
73266;SDS011;61495;53.400;7.608;2022-12-29T09:55:42;5.43;;;1.40;;
73266;SDS011;61495;53.400;7.608;2022-12-29T09:58:13;9.27;;;1.55;;
73266;SDS011;61495;53.400;7.608;2022-12-29T10:01:00;6.95;;;1.60;;
73266;SDS011;61495;53.400;7.608;2022-12-29T10:03:48;9.73;;;2.17;;
73266;SDS011;61495;53.400;7.608;2022-12-29T10:16:49;8.15;;;0.95;;
73266;SDS011;61495;53.400;7.608;2022-12-29T10:24:57;6.97;;;1.83;;
73266;SDS011;61495;53.400;7.608;2022-12-29T10:27:27;5.93;;;1.10;;
73266;SDS011;61495;53.400;7.608;2022-12-29T10:29:56;4.78;;;1.30;;
73266;SDS011;61495;53.400;7.608;2022-12-29T10:32:34;4.15;;;1.63;;
73266;SDS011;61495;53.400;7.608;2022-12-29T10:35:10;6.13;;;1.50;;
73266;SDS011;61495;53.400;7.608;2022-12-29T10:37:48;6.60;;;1.05;;
73266;SDS011;61495;53.400;7.608;2022-12-29T10:40:26;7.03;;;1.40;;
73266;SDS011;61495;53.400;7.608;2022-12-29T10:43:27;6.00;;;1.25;;
73266;SDS011;61495;53.400;7.608;2022-12-29T10:46:07;11.00;;;2.03;;
73266;SDS011;61495;53.400;7.608;2022-12-29T10:48:37;7.40;;;1.15;;
73266;SDS011;61495;53.400;7.608;2022-12-29T10:51:04;6.38;;;1.83;;
73266;SDS011;61495;53.400;7.608;2022-12-29T10:53:36;9.38;;;1.75;;
73266;SDS011;61495;53.400;7.608;2022-12-29T10:56:18;5.70;;;1.13;;
73266;SDS011;61495;53.400;7.608;2022-12-29T10:58:54;4.10;;;0.93;;
73266;SDS011;61495;53.400;7.608;2022-12-29T11:01:22;8.93;;;1.73;;
73266;SDS011;61495;53.400;7.608;2022-12-29T11:03:57;6.28;;;1.65;;
73266;SDS011;61495;53.400;7.608;2022-12-29T11:06:28;8.63;;;1.83;;
73266;SDS011;61495;53.400;7.608;2022-12-29T11:09:14;8.48;;;1.60;;
73266;SDS011;61495;53.400;7.608;2022-12-29T11:11:46;3.58;;;1.02;;
73266;SDS011;61495;53.400;7.608;2022-12-29T11:14:13;9.30;;;2.25;;
73266;SDS011;61495;53.400;7.608;2022-12-29T11:16:42;9.48;;;1.48;;
73266;SDS011;61495;53.400;7.608;2022-12-29T11:19:22;10.32;;;1.48;;
73266;SDS011;61495;53.400;7.608;2022-12-29T11:21:50;3.92;;;1.60;;
73266;SDS011;61495;53.400;7.608;2022-12-29T11:24:29;8.07;;;1.92;;
73266;SDS011;61495;53.400;7.608;2022-12-29T11:29:41;6.88;;;1.42;;
73266;SDS011;61495;53.400;7.608;2022-12-29T11:32:17;5.50;;;1.20;;
73266;SDS011;61495;53.400;7.608;2022-12-29T11:34:44;3.20;;;1.23;;
73266;SDS011;61495;53.400;7.608;2022-12-29T11:37:16;5.65;;;1.60;;
73266;SDS011;61495;53.400;7.608;2022-12-29T11:40:01;5.82;;;2.10;;
73266;SDS011;61495;53.400;7.608;2022-12-29T11:42:37;7.53;;;1.20;;
73266;SDS011;61495;53.400;7.608;2022-12-29T11:45:20;4.15;;;1.70;;
73266;SDS011;61495;53.400;7.608;2022-12-29T11:47:48;6.15;;;1.40;;
73266;SDS011;61495;53.400;7.608;2022-12-29T11:50:20;9.30;;;1.20;;
73266;SDS011;61495;53.400;7.608;2022-12-29T11:52:56;5.20;;;1.05;;
73266;SDS011;61495;53.400;7.608;2022-12-29T11:55:25;7.65;;;1.50;;
73266;SDS011;61495;53.400;7.608;2022-12-29T11:57:53;6.90;;;1.20;;
73266;SDS011;61495;53.400;7.608;2022-12-29T12:00:23;5.53;;;1.35;;
73266;SDS011;61495;53.400;7.608;2022-12-29T12:03:04;6.53;;;1.60;;
73266;SDS011;61495;53.400;7.608;2022-12-29T12:05:41;4.95;;;1.30;;
73266;SDS011;61495;53.400;7.608;2022-12-29T12:08:13;7.82;;;1.83;;
73266;SDS011;61495;53.400;7.608;2022-12-29T12:13:58;5.00;;;1.40;;
73266;SDS011;61495;53.400;7.608;2022-12-29T12:16:50;5.03;;;1.60;;
73266;SDS011;61495;53.400;7.608;2022-12-29T12:21:46;9.48;;;1.92;;
73266;SDS011;61495;53.400;7.608;2022-12-29T12:24:50;7.07;;;1.42;;
73266;SDS011;61495;53.400;7.608;2022-12-29T12:27:43;5.85;;;1.25;;
73266;SDS011;61495;53.400;7.608;2022-12-29T12:30:16;7.93;;;1.65;;
73266;SDS011;61495;53.400;7.608;2022-12-29T12:32:46;8.75;;;1.75;;
73266;SDS011;61495;53.400;7.608;2022-12-29T12:35:22;9.38;;;1.92;;
73266;SDS011;61495;53.400;7.608;2022-12-29T12:46:09;6.45;;;1.60;;
73266;SDS011;61495;53.400;7.608;2022-12-29T12:54:20;7.75;;;2.08;;
73266;SDS011;61495;53.400;7.608;2022-12-29T13:00:00;7.80;;;1.50;;
73266;SDS011;61495;53.400;7.608;2022-12-29T13:02:35;9.55;;;1.63;;
73266;SDS011;61495;53.400;7.608;2022-12-29T13:08:16;5.82;;;1.30;;
73266;SDS011;61495;53.400;7.608;2022-12-29T13:15:53;7.40;;;1.70;;
73266;SDS011;61495;53.400;7.608;2022-12-29T13:18:26;11.35;;;2.75;;
73266;SDS011;61495;53.400;7.608;2022-12-29T13:21:17;8.88;;;2.05;;
73266;SDS011;61495;53.400;7.608;2022-12-29T13:26:45;11.55;;;2.05;;
73266;SDS011;61495;53.400;7.608;2022-12-29T13:37:46;12.55;;;2.20;;
73266;SDS011;61495;53.400;7.608;2022-12-29T13:40:18;10.52;;;2.60;;
73266;SDS011;61495;53.400;7.608;2022-12-29T13:42:46;11.13;;;2.13;;
73266;SDS011;61495;53.400;7.608;2022-12-29T13:45:16;6.15;;;1.35;;
73266;SDS011;61495;53.400;7.608;2022-12-29T13:47:46;7.00;;;1.27;;
73266;SDS011;61495;53.400;7.608;2022-12-29T13:50:27;8.82;;;2.03;;
73266;SDS011;61495;53.400;7.608;2022-12-29T13:55:44;9.27;;;2.15;;
73266;SDS011;61495;53.400;7.608;2022-12-29T13:58:25;5.35;;;1.35;;
73266;SDS011;61495;53.400;7.608;2022-12-29T14:08:59;5.90;;;1.73;;
73266;SDS011;61495;53.400;7.608;2022-12-29T14:11:37;3.90;;;1.10;;
73266;SDS011;61495;53.400;7.608;2022-12-29T14:14:17;4.97;;;2.13;;
73266;SDS011;61495;53.400;7.608;2022-12-29T14:16:46;6.75;;;1.75;;
73266;SDS011;61495;53.400;7.608;2022-12-29T14:21:53;5.38;;;1.42;;
73266;SDS011;61495;53.400;7.608;2022-12-29T14:26:59;8.05;;;2.05;;
73266;SDS011;61495;53.400;7.608;2022-12-29T14:31:54;10.93;;;1.27;;
73266;SDS011;61495;53.400;7.608;2022-12-29T14:36:55;4.33;;;1.07;;
73266;SDS011;61495;53.400;7.608;2022-12-29T14:39:39;4.20;;;1.25;;
73266;SDS011;61495;53.400;7.608;2022-12-29T14:44:50;4.13;;;1.00;;
73266;SDS011;61495;53.400;7.608;2022-12-29T14:53:04;6.03;;;0.95;;
73266;SDS011;61495;53.400;7.608;2022-12-29T14:58:05;9.38;;;1.60;;
73266;SDS011;61495;53.400;7.608;2022-12-29T15:00:39;7.90;;;1.13;;
73266;SDS011;61495;53.400;7.608;2022-12-29T15:03:47;6.53;;;1.73;;
73266;SDS011;61495;53.400;7.608;2022-12-29T15:06:07;6.40;;;1.52;;
73266;SDS011;61495;53.400;7.608;2022-12-29T15:11:40;4.15;;;1.38;;
73266;SDS011;61495;53.400;7.608;2022-12-29T15:14:35;10.57;;;1.60;;
73266;SDS011;61495;53.400;7.608;2022-12-29T15:16:58;4.88;;;1.55;;
73266;SDS011;61495;53.400;7.608;2022-12-29T15:19:25;7.35;;;1.25;;
73266;SDS011;61495;53.400;7.608;2022-12-29T15:21:54;4.35;;;1.80;;
73266;SDS011;61495;53.400;7.608;2022-12-29T15:24:21;6.57;;;1.55;;
73266;SDS011;61495;53.400;7.608;2022-12-29T15:26:51;6.82;;;1.33;;
73266;SDS011;61495;53.400;7.608;2022-12-29T15:34:40;6.50;;;1.45;;
73266;SDS011;61495;53.400;7.608;2022-12-29T15:37:07;6.65;;;2.03;;
73266;SDS011;61495;53.400;7.608;2022-12-29T15:39:33;10.25;;;2.67;;
73266;SDS011;61495;53.400;7.608;2022-12-29T15:42:36;5.93;;;1.73;;
73266;SDS011;61495;53.400;7.608;2022-12-29T15:44:53;8.98;;;2.08;;
73266;SDS011;61495;53.400;7.608;2022-12-29T15:47:20;6.85;;;1.38;;
73266;SDS011;61495;53.400;7.608;2022-12-29T15:49:50;4.47;;;0.98;;
73266;SDS011;61495;53.400;7.608;2022-12-29T15:52:18;6.38;;;1.73;;
73266;SDS011;61495;53.400;7.608;2022-12-29T15:54:46;5.68;;;1.80;;
73266;SDS011;61495;53.400;7.608;2022-12-29T15:59:54;8.85;;;1.63;;
73266;SDS011;61495;53.400;7.608;2022-12-29T16:02:22;5.72;;;1.38;;
73266;SDS011;61495;53.400;7.608;2022-12-29T16:04:49;6.82;;;2.08;;
73266;SDS011;61495;53.400;7.608;2022-12-29T16:07:51;11.68;;;2.55;;
73266;SDS011;61495;53.400;7.608;2022-12-29T16:10:49;7.68;;;1.55;;
73266;SDS011;61495;53.400;7.608;2022-12-29T16:13:19;3.58;;;1.17;;
73266;SDS011;61495;53.400;7.608;2022-12-29T16:16:02;4.13;;;1.52;;
73266;SDS011;61495;53.400;7.608;2022-12-29T16:18:34;13.73;;;1.50;;
73266;SDS011;61495;53.400;7.608;2022-12-29T16:24:25;7.70;;;1.50;;
73266;SDS011;61495;53.400;7.608;2022-12-29T16:29:39;5.50;;;1.23;;
73266;SDS011;61495;53.400;7.608;2022-12-29T16:32:21;5.72;;;1.60;;
73266;SDS011;61495;53.400;7.608;2022-12-29T16:35:00;7.45;;;1.33;;
73266;SDS011;61495;53.400;7.608;2022-12-29T16:37:38;8.55;;;1.55;;
73266;SDS011;61495;53.400;7.608;2022-12-29T16:50:30;5.72;;;1.30;;
73266;SDS011;61495;53.400;7.608;2022-12-29T16:52:56;4.80;;;1.38;;
73266;SDS011;61495;53.400;7.608;2022-12-29T16:55:22;7.45;;;1.20;;
73266;SDS011;61495;53.400;7.608;2022-12-29T16:57:47;6.45;;;1.42;;
73266;SDS011;61495;53.400;7.608;2022-12-29T17:00:26;5.07;;;1.30;;
73266;SDS011;61495;53.400;7.608;2022-12-29T17:03:01;4.90;;;1.17;;
73266;SDS011;61495;53.400;7.608;2022-12-29T17:05:27;5.05;;;1.30;;
73266;SDS011;61495;53.400;7.608;2022-12-29T17:07:53;6.25;;;1.27;;
73266;SDS011;61495;53.400;7.608;2022-12-29T17:10:19;7.50;;;1.75;;
73266;SDS011;61495;53.400;7.608;2022-12-29T17:12:45;4.47;;;1.17;;
73266;SDS011;61495;53.400;7.608;2022-12-29T17:15:14;5.05;;;1.30;;
73266;SDS011;61495;53.400;7.608;2022-12-29T17:17:46;6.22;;;1.85;;
73266;SDS011;61495;53.400;7.608;2022-12-29T17:20:21;7.38;;;1.50;;
73266;SDS011;61495;53.400;7.608;2022-12-29T17:22:48;5.38;;;1.23;;
73266;SDS011;61495;53.400;7.608;2022-12-29T17:25:16;5.32;;;1.25;;
73266;SDS011;61495;53.400;7.608;2022-12-29T17:27:53;6.00;;;1.55;;
73266;SDS011;61495;53.400;7.608;2022-12-29T17:30:23;6.30;;;1.20;;
73266;SDS011;61495;53.400;7.608;2022-12-29T17:32:51;5.85;;;1.40;;